sensor_id;sensor_type;location;lat;lon;timestamp;P1;durP1;ratioP1;P2;durP2;ratioP2
31660;SDS011;18267;52.234;7.444;2023-04-26T00:00:22;11.80;;;1.88;;
31660;SDS011;18267;52.234;7.444;2023-04-26T00:02:48;5.10;;;1.50;;
31660;SDS011;18267;52.234;7.444;2023-04-26T00:05:14;4.07;;;1.83;;
31660;SDS011;18267;52.234;7.444;2023-04-26T00:07:40;9.23;;;1.63;;
31660;SDS011;18267;52.234;7.444;2023-04-26T00:10:07;11.45;;;1.80;;
31660;SDS011;18267;52.234;7.444;2023-04-26T00:12:34;3.83;;;1.42;;
31660;SDS011;18267;52.234;7.444;2023-04-26T00:15:00;7.50;;;2.08;;
31660;SDS011;18267;52.234;7.444;2023-04-26T00:17:27;8.77;;;1.80;;
31660;SDS011;18267;52.234;7.444;2023-04-26T00:19:52;6.82;;;1.80;;
31660;SDS011;18267;52.234;7.444;2023-04-26T00:22:19;1.55;;;1.27;;
31660;SDS011;18267;52.234;7.444;2023-04-26T00:24:44;8.07;;;1.77;;
31660;SDS011;18267;52.234;7.444;2023-04-26T00:27:10;13.23;;;2.10;;
31660;SDS011;18267;52.234;7.444;2023-04-26T00:29:35;3.00;;;1.92;;
31660;SDS011;18267;52.234;7.444;2023-04-26T00:32:01;6.05;;;1.90;;
31660;SDS011;18267;52.234;7.444;2023-04-26T00:34:31;8.95;;;1.90;;
31660;SDS011;18267;52.234;7.444;2023-04-26T00:36:58;3.35;;;1.50;;
31660;SDS011;18267;52.234;7.444;2023-04-26T00:39:23;11.85;;;2.13;;
31660;SDS011;18267;52.234;7.444;2023-04-26T00:41:49;4.97;;;1.30;;
31660;SDS011;18267;52.234;7.444;2023-04-26T00:44:15;7.90;;;1.27;;
31660;SDS011;18267;52.234;7.444;2023-04-26T00:46:40;3.45;;;1.45;;
31660;SDS011;18267;52.234;7.444;2023-04-26T00:49:06;8.00;;;1.55;;
31660;SDS011;18267;52.234;7.444;2023-04-26T00:51:32;8.43;;;1.63;;
31660;SDS011;18267;52.234;7.444;2023-04-26T00:53:57;7.30;;;1.98;;
31660;SDS011;18267;52.234;7.444;2023-04-26T00:56:23;8.38;;;2.17;;
31660;SDS011;18267;52.234;7.444;2023-04-26T00:58:50;8.38;;;1.92;;
31660;SDS011;18267;52.234;7.444;2023-04-26T01:01:15;7.22;;;1.63;;
31660;SDS011;18267;52.234;7.444;2023-04-26T01:03:41;5.93;;;1.45;;
31660;SDS011;18267;52.234;7.444;2023-04-26T01:06:08;7.13;;;2.10;;
31660;SDS011;18267;52.234;7.444;2023-04-26T01:08:33;4.47;;;1.63;;
31660;SDS011;18267;52.234;7.444;2023-04-26T01:10:59;5.63;;;1.27;;
31660;SDS011;18267;52.234;7.444;2023-04-26T01:13:25;9.38;;;2.00;;
31660;SDS011;18267;52.234;7.444;2023-04-26T01:15:51;5.35;;;2.22;;
31660;SDS011;18267;52.234;7.444;2023-04-26T01:18:17;5.90;;;1.70;;
31660;SDS011;18267;52.234;7.444;2023-04-26T01:20:43;4.13;;;1.85;;
31660;SDS011;18267;52.234;7.444;2023-04-26T01:23:10;6.82;;;2.10;;
31660;SDS011;18267;52.234;7.444;2023-04-26T01:25:36;7.07;;;1.70;;
31660;SDS011;18267;52.234;7.444;2023-04-26T01:28:02;4.95;;;1.88;;
31660;SDS011;18267;52.234;7.444;2023-04-26T01:30:27;10.20;;;2.80;;
31660;SDS011;18267;52.234;7.444;2023-04-26T01:32:53;8.75;;;2.20;;
31660;SDS011;18267;52.234;7.444;2023-04-26T01:35:19;5.30;;;2.05;;
31660;SDS011;18267;52.234;7.444;2023-04-26T01:37:44;11.32;;;1.75;;
31660;SDS011;18267;52.234;7.444;2023-04-26T01:40:10;6.15;;;1.83;;
31660;SDS011;18267;52.234;7.444;2023-04-26T01:42:36;7.47;;;1.98;;
31660;SDS011;18267;52.234;7.444;2023-04-26T01:45:02;7.57;;;1.73;;
31660;SDS011;18267;52.234;7.444;2023-04-26T01:47:27;5.35;;;1.88;;
31660;SDS011;18267;52.234;7.444;2023-04-26T01:49:53;7.88;;;2.28;;
31660;SDS011;18267;52.234;7.444;2023-04-26T01:52:19;3.90;;;1.63;;
31660;SDS011;18267;52.234;7.444;2023-04-26T01:54:46;7.43;;;2.22;;
31660;SDS011;18267;52.234;7.444;2023-04-26T01:57:12;6.43;;;1.85;;
31660;SDS011;18267;52.234;7.444;2023-04-26T01:59:37;8.00;;;2.00;;
31660;SDS011;18267;52.234;7.444;2023-04-26T02:02:03;3.40;;;1.67;;
31660;SDS011;18267;52.234;7.444;2023-04-26T02:04:29;6.47;;;2.17;;
31660;SDS011;18267;52.234;7.444;2023-04-26T02:06:55;6.53;;;1.75;;
31660;SDS011;18267;52.234;7.444;2023-04-26T02:09:21;6.40;;;1.80;;
31660;SDS011;18267;52.234;7.444;2023-04-26T02:11:46;7.20;;;2.10;;
31660;SDS011;18267;52.234;7.444;2023-04-26T02:14:12;3.45;;;2.00;;
31660;SDS011;18267;52.234;7.444;2023-04-26T02:16:38;5.22;;;1.73;;
31660;SDS011;18267;52.234;7.444;2023-04-26T02:19:04;5.32;;;2.13;;
31660;SDS011;18267;52.234;7.444;2023-04-26T02:21:48;3.78;;;1.95;;
31660;SDS011;18267;52.234;7.444;2023-04-26T02:24:15;10.18;;;2.35;;
31660;SDS011;18267;52.234;7.444;2023-04-26T02:26:40;11.70;;;2.08;;
31660;SDS011;18267;52.234;7.444;2023-04-26T02:29:06;8.73;;;1.85;;
31660;SDS011;18267;52.234;7.444;2023-04-26T02:31:31;7.32;;;1.88;;
31660;SDS011;18267;52.234;7.444;2023-04-26T02:33:57;7.93;;;2.15;;
31660;SDS011;18267;52.234;7.444;2023-04-26T02:36:22;11.95;;;2.17;;
31660;SDS011;18267;52.234;7.444;2023-04-26T02:38:48;8.70;;;2.65;;
31660;SDS011;18267;52.234;7.444;2023-04-26T02:41:13;14.18;;;2.45;;
31660;SDS011;18267;52.234;7.444;2023-04-26T02:43:39;5.55;;;1.73;;
31660;SDS011;18267;52.234;7.444;2023-04-26T02:46:07;6.55;;;2.63;;
31660;SDS011;18267;52.234;7.444;2023-04-26T02:48:33;4.18;;;1.63;;
31660;SDS011;18267;52.234;7.444;2023-04-26T02:50:59;5.50;;;2.00;;
31660;SDS011;18267;52.234;7.444;2023-04-26T02:53:25;6.20;;;2.33;;
31660;SDS011;18267;52.234;7.444;2023-04-26T02:55:50;5.10;;;2.17;;
31660;SDS011;18267;52.234;7.444;2023-04-26T02:58:16;6.78;;;1.65;;
31660;SDS011;18267;52.234;7.444;2023-04-26T03:00:45;3.95;;;2.28;;
31660;SDS011;18267;52.234;7.444;2023-04-26T03:03:12;9.75;;;1.95;;
31660;SDS011;18267;52.234;7.444;2023-04-26T03:05:38;4.32;;;1.73;;
31660;SDS011;18267;52.234;7.444;2023-04-26T03:08:03;6.90;;;1.83;;
31660;SDS011;18267;52.234;7.444;2023-04-26T03:10:30;4.65;;;1.85;;
31660;SDS011;18267;52.234;7.444;2023-04-26T03:12:55;5.40;;;1.95;;
31660;SDS011;18267;52.234;7.444;2023-04-26T03:15:21;6.82;;;1.75;;
31660;SDS011;18267;52.234;7.444;2023-04-26T03:17:46;7.22;;;2.17;;
31660;SDS011;18267;52.234;7.444;2023-04-26T03:20:13;4.40;;;2.22;;
31660;SDS011;18267;52.234;7.444;2023-04-26T03:22:39;8.55;;;1.70;;
31660;SDS011;18267;52.234;7.444;2023-04-26T03:25:05;10.32;;;2.58;;
31660;SDS011;18267;52.234;7.444;2023-04-26T03:27:31;3.03;;;1.70;;
31660;SDS011;18267;52.234;7.444;2023-04-26T03:29:57;6.90;;;1.80;;
31660;SDS011;18267;52.234;7.444;2023-04-26T03:32:23;6.32;;;1.77;;
31660;SDS011;18267;52.234;7.444;2023-04-26T03:34:48;10.75;;;2.40;;
31660;SDS011;18267;52.234;7.444;2023-04-26T03:37:14;7.88;;;1.85;;
31660;SDS011;18267;52.234;7.444;2023-04-26T03:39:40;9.75;;;2.50;;
31660;SDS011;18267;52.234;7.444;2023-04-26T03:42:05;7.35;;;2.20;;
31660;SDS011;18267;52.234;7.444;2023-04-26T03:44:31;11.48;;;2.25;;
31660;SDS011;18267;52.234;7.444;2023-04-26T03:46:56;10.13;;;3.00;;
31660;SDS011;18267;52.234;7.444;2023-04-26T03:49:22;6.55;;;2.20;;
31660;SDS011;18267;52.234;7.444;2023-04-26T03:51:48;8.30;;;2.50;;
31660;SDS011;18267;52.234;7.444;2023-04-26T03:54:14;8.98;;;2.08;;
31660;SDS011;18267;52.234;7.444;2023-04-26T03:56:39;6.20;;;2.55;;
31660;SDS011;18267;52.234;7.444;2023-04-26T03:59:05;6.03;;;2.63;;
31660;SDS011;18267;52.234;7.444;2023-04-26T04:01:31;4.05;;;1.95;;
31660;SDS011;18267;52.234;7.444;2023-04-26T04:03:57;4.30;;;1.98;;
31660;SDS011;18267;52.234;7.444;2023-04-26T04:06:23;3.72;;;1.88;;
31660;SDS011;18267;52.234;7.444;2023-04-26T04:08:48;8.73;;;2.30;;
31660;SDS011;18267;52.234;7.444;2023-04-26T04:11:14;7.28;;;2.15;;
31660;SDS011;18267;52.234;7.444;2023-04-26T04:13:39;3.58;;;2.22;;
31660;SDS011;18267;52.234;7.444;2023-04-26T04:16:05;5.80;;;2.42;;
31660;SDS011;18267;52.234;7.444;2023-04-26T04:18:34;6.45;;;2.28;;
31660;SDS011;18267;52.234;7.444;2023-04-26T04:20:59;11.35;;;2.47;;
31660;SDS011;18267;52.234;7.444;2023-04-26T04:23:25;2.88;;;2.08;;
31660;SDS011;18267;52.234;7.444;2023-04-26T04:25:52;8.15;;;2.45;;
31660;SDS011;18267;52.234;7.444;2023-04-26T04:28:17;3.80;;;1.90;;
31660;SDS011;18267;52.234;7.444;2023-04-26T04:30:43;5.95;;;2.30;;
31660;SDS011;18267;52.234;7.444;2023-04-26T04:33:10;9.98;;;2.22;;
31660;SDS011;18267;52.234;7.444;2023-04-26T04:35:36;5.78;;;2.22;;
31660;SDS011;18267;52.234;7.444;2023-04-26T04:38:01;8.35;;;2.13;;
31660;SDS011;18267;52.234;7.444;2023-04-26T04:40:28;5.28;;;2.00;;
31660;SDS011;18267;52.234;7.444;2023-04-26T04:42:54;7.65;;;1.90;;
31660;SDS011;18267;52.234;7.444;2023-04-26T04:45:20;5.63;;;2.38;;
31660;SDS011;18267;52.234;7.444;2023-04-26T04:47:46;5.90;;;2.55;;
31660;SDS011;18267;52.234;7.444;2023-04-26T04:50:11;3.22;;;2.03;;
31660;SDS011;18267;52.234;7.444;2023-04-26T04:52:38;8.90;;;2.47;;
31660;SDS011;18267;52.234;7.444;2023-04-26T04:55:05;7.28;;;2.97;;
31660;SDS011;18267;52.234;7.444;2023-04-26T04:57:30;5.97;;;2.88;;
31660;SDS011;18267;52.234;7.444;2023-04-26T04:59:56;9.90;;;3.53;;
31660;SDS011;18267;52.234;7.444;2023-04-26T05:02:22;6.80;;;3.13;;
31660;SDS011;18267;52.234;7.444;2023-04-26T05:04:47;15.10;;;3.50;;
31660;SDS011;18267;52.234;7.444;2023-04-26T05:07:13;14.70;;;3.63;;
31660;SDS011;18267;52.234;7.444;2023-04-26T05:09:43;13.35;;;3.85;;
31660;SDS011;18267;52.234;7.444;2023-04-26T05:12:08;8.95;;;3.53;;
31660;SDS011;18267;52.234;7.444;2023-04-26T05:14:34;9.50;;;3.20;;
31660;SDS011;18267;52.234;7.444;2023-04-26T05:16:59;7.03;;;2.88;;
31660;SDS011;18267;52.234;7.444;2023-04-26T05:19:25;10.25;;;3.05;;
31660;SDS011;18267;52.234;7.444;2023-04-26T05:21:51;12.05;;;3.33;;
31660;SDS011;18267;52.234;7.444;2023-04-26T05:24:17;5.70;;;2.90;;
31660;SDS011;18267;52.234;7.444;2023-04-26T05:26:42;11.50;;;3.58;;
31660;SDS011;18267;52.234;7.444;2023-04-26T05:29:08;9.18;;;3.50;;
31660;SDS011;18267;52.234;7.444;2023-04-26T05:31:33;8.55;;;3.00;;
31660;SDS011;18267;52.234;7.444;2023-04-26T05:33:59;9.40;;;3.17;;
31660;SDS011;18267;52.234;7.444;2023-04-26T05:36:25;6.20;;;3.22;;
31660;SDS011;18267;52.234;7.444;2023-04-26T05:38:50;8.48;;;3.47;;
31660;SDS011;18267;52.234;7.444;2023-04-26T05:41:16;8.30;;;3.60;;
31660;SDS011;18267;52.234;7.444;2023-04-26T05:43:42;13.75;;;3.20;;
31660;SDS011;18267;52.234;7.444;2023-04-26T05:46:07;5.50;;;3.45;;
31660;SDS011;18267;52.234;7.444;2023-04-26T05:48:33;5.18;;;3.15;;
31660;SDS011;18267;52.234;7.444;2023-04-26T05:50:59;8.98;;;3.15;;
31660;SDS011;18267;52.234;7.444;2023-04-26T05:53:26;12.50;;;4.10;;
31660;SDS011;18267;52.234;7.444;2023-04-26T05:55:52;9.35;;;3.90;;
31660;SDS011;18267;52.234;7.444;2023-04-26T05:58:17;13.32;;;3.45;;
31660;SDS011;18267;52.234;7.444;2023-04-26T06:00:43;10.63;;;3.25;;
31660;SDS011;18267;52.234;7.444;2023-04-26T06:03:10;6.93;;;3.20;;
31660;SDS011;18267;52.234;7.444;2023-04-26T06:05:36;9.77;;;3.08;;
31660;SDS011;18267;52.234;7.444;2023-04-26T06:08:03;8.55;;;3.40;;
31660;SDS011;18267;52.234;7.444;2023-04-26T06:10:29;10.57;;;2.97;;
31660;SDS011;18267;52.234;7.444;2023-04-26T06:12:55;6.00;;;2.80;;
31660;SDS011;18267;52.234;7.444;2023-04-26T06:15:21;7.78;;;3.45;;
31660;SDS011;18267;52.234;7.444;2023-04-26T06:17:46;10.13;;;3.20;;
31660;SDS011;18267;52.234;7.444;2023-04-26T06:20:12;10.13;;;2.92;;
31660;SDS011;18267;52.234;7.444;2023-04-26T06:22:37;6.03;;;2.85;;
31660;SDS011;18267;52.234;7.444;2023-04-26T06:25:03;9.68;;;2.90;;
31660;SDS011;18267;52.234;7.444;2023-04-26T06:27:31;11.18;;;2.88;;
31660;SDS011;18267;52.234;7.444;2023-04-26T06:29:57;14.68;;;3.20;;
31660;SDS011;18267;52.234;7.444;2023-04-26T06:32:22;9.32;;;3.05;;
31660;SDS011;18267;52.234;7.444;2023-04-26T06:34:48;9.75;;;2.92;;
31660;SDS011;18267;52.234;7.444;2023-04-26T06:37:13;8.82;;;2.78;;
31660;SDS011;18267;52.234;7.444;2023-04-26T06:39:40;10.95;;;3.25;;
31660;SDS011;18267;52.234;7.444;2023-04-26T06:42:07;4.45;;;2.60;;
31660;SDS011;18267;52.234;7.444;2023-04-26T06:44:32;6.78;;;2.63;;
31660;SDS011;18267;52.234;7.444;2023-04-26T06:46:58;4.82;;;2.60;;
31660;SDS011;18267;52.234;7.444;2023-04-26T06:49:23;7.07;;;2.35;;
31660;SDS011;18267;52.234;7.444;2023-04-26T06:51:49;10.27;;;2.40;;
31660;SDS011;18267;52.234;7.444;2023-04-26T06:54:16;5.32;;;1.67;;
31660;SDS011;18267;52.234;7.444;2023-04-26T06:56:43;3.40;;;1.95;;
31660;SDS011;18267;52.234;7.444;2023-04-26T06:59:10;6.68;;;1.92;;
31660;SDS011;18267;52.234;7.444;2023-04-26T07:01:35;8.43;;;1.98;;
31660;SDS011;18267;52.234;7.444;2023-04-26T07:04:01;7.50;;;2.17;;
31660;SDS011;18267;52.234;7.444;2023-04-26T07:06:28;5.03;;;1.95;;
31660;SDS011;18267;52.234;7.444;2023-04-26T07:08:56;9.45;;;1.92;;
31660;SDS011;18267;52.234;7.444;2023-04-26T07:11:22;5.05;;;1.98;;
31660;SDS011;18267;52.234;7.444;2023-04-26T07:13:48;10.43;;;1.73;;
31660;SDS011;18267;52.234;7.444;2023-04-26T07:16:14;4.95;;;2.35;;
31660;SDS011;18267;52.234;7.444;2023-04-26T07:18:40;8.68;;;2.03;;
31660;SDS011;18267;52.234;7.444;2023-04-26T07:21:06;6.35;;;2.45;;
31660;SDS011;18267;52.234;7.444;2023-04-26T07:23:32;8.45;;;2.10;;
31660;SDS011;18267;52.234;7.444;2023-04-26T07:25:57;4.47;;;2.08;;
31660;SDS011;18267;52.234;7.444;2023-04-26T07:28:25;2.10;;;1.55;;
31660;SDS011;18267;52.234;7.444;2023-04-26T07:30:50;5.95;;;1.83;;
31660;SDS011;18267;52.234;7.444;2023-04-26T07:33:16;5.15;;;1.73;;
31660;SDS011;18267;52.234;7.444;2023-04-26T07:35:42;6.70;;;1.90;;
31660;SDS011;18267;52.234;7.444;2023-04-26T07:38:07;7.30;;;1.90;;
31660;SDS011;18267;52.234;7.444;2023-04-26T07:40:33;6.85;;;1.50;;
31660;SDS011;18267;52.234;7.444;2023-04-26T07:42:59;4.40;;;1.80;;
31660;SDS011;18267;52.234;7.444;2023-04-26T07:45:25;5.47;;;1.92;;
31660;SDS011;18267;52.234;7.444;2023-04-26T07:47:51;5.60;;;1.67;;
31660;SDS011;18267;52.234;7.444;2023-04-26T07:50:17;7.63;;;1.98;;
31660;SDS011;18267;52.234;7.444;2023-04-26T07:52:43;3.67;;;1.60;;
31660;SDS011;18267;52.234;7.444;2023-04-26T07:55:09;3.75;;;1.58;;
31660;SDS011;18267;52.234;7.444;2023-04-26T07:57:35;6.90;;;1.90;;
31660;SDS011;18267;52.234;7.444;2023-04-26T08:00:01;3.63;;;1.83;;
31660;SDS011;18267;52.234;7.444;2023-04-26T08:02:28;6.20;;;1.95;;
31660;SDS011;18267;52.234;7.444;2023-04-26T08:04:53;5.30;;;1.90;;
31660;SDS011;18267;52.234;7.444;2023-04-26T08:07:20;9.45;;;1.90;;
31660;SDS011;18267;52.234;7.444;2023-04-26T08:09:46;7.90;;;1.60;;
31660;SDS011;18267;52.234;7.444;2023-04-26T08:12:13;2.72;;;1.90;;
31660;SDS011;18267;52.234;7.444;2023-04-26T08:14:38;6.78;;;1.40;;
31660;SDS011;18267;52.234;7.444;2023-04-26T08:17:04;3.97;;;1.38;;
31660;SDS011;18267;52.234;7.444;2023-04-26T08:19:31;4.75;;;1.95;;
31660;SDS011;18267;52.234;7.444;2023-04-26T08:21:58;5.43;;;1.25;;
31660;SDS011;18267;52.234;7.444;2023-04-26T08:24:24;7.57;;;1.88;;
31660;SDS011;18267;52.234;7.444;2023-04-26T08:26:49;5.65;;;1.52;;
31660;SDS011;18267;52.234;7.444;2023-04-26T08:29:15;4.68;;;1.88;;
31660;SDS011;18267;52.234;7.444;2023-04-26T08:31:41;9.80;;;1.50;;
31660;SDS011;18267;52.234;7.444;2023-04-26T08:34:07;5.97;;;1.60;;
31660;SDS011;18267;52.234;7.444;2023-04-26T08:36:35;4.70;;;1.40;;
31660;SDS011;18267;52.234;7.444;2023-04-26T08:39:02;10.15;;;1.50;;
31660;SDS011;18267;52.234;7.444;2023-04-26T08:41:28;3.58;;;1.00;;
31660;SDS011;18267;52.234;7.444;2023-04-26T08:43:57;1.23;;;1.13;;
31660;SDS011;18267;52.234;7.444;2023-04-26T08:46:23;3.92;;;1.42;;
31660;SDS011;18267;52.234;7.444;2023-04-26T08:48:57;6.70;;;1.42;;
31660;SDS011;18267;52.234;7.444;2023-04-26T08:51:30;6.05;;;1.20;;
31660;SDS011;18267;52.234;7.444;2023-04-26T08:53:57;4.25;;;1.08;;
31660;SDS011;18267;52.234;7.444;2023-04-26T08:56:24;6.78;;;1.20;;
31660;SDS011;18267;52.234;7.444;2023-04-26T08:58:51;7.72;;;1.17;;
31660;SDS011;18267;52.234;7.444;2023-04-26T09:01:17;3.95;;;1.08;;
31660;SDS011;18267;52.234;7.444;2023-04-26T09:03:48;4.40;;;1.33;;
31660;SDS011;18267;52.234;7.444;2023-04-26T09:06:14;3.25;;;0.88;;
31660;SDS011;18267;52.234;7.444;2023-04-26T09:08:41;2.25;;;0.90;;
31660;SDS011;18267;52.234;7.444;2023-04-26T09:11:08;7.72;;;1.17;;
31660;SDS011;18267;52.234;7.444;2023-04-26T09:13:33;4.25;;;1.17;;
31660;SDS011;18267;52.234;7.444;2023-04-26T09:15:59;5.35;;;1.33;;
31660;SDS011;18267;52.234;7.444;2023-04-26T09:18:25;1.77;;;1.13;;
31660;SDS011;18267;52.234;7.444;2023-04-26T09:21:00;2.60;;;1.33;;
31660;SDS011;18267;52.234;7.444;2023-04-26T09:23:27;4.63;;;0.98;;
31660;SDS011;18267;52.234;7.444;2023-04-26T09:25:53;7.35;;;1.42;;
31660;SDS011;18267;52.234;7.444;2023-04-26T09:28:20;2.50;;;0.95;;
31660;SDS011;18267;52.234;7.444;2023-04-26T09:30:47;1.80;;;1.00;;
31660;SDS011;18267;52.234;7.444;2023-04-26T09:33:12;4.90;;;1.25;;
31660;SDS011;18267;52.234;7.444;2023-04-26T09:35:39;6.68;;;1.08;;
31660;SDS011;18267;52.234;7.444;2023-04-26T09:38:10;4.03;;;1.25;;
31660;SDS011;18267;52.234;7.444;2023-04-26T09:40:37;5.47;;;1.50;;
31660;SDS011;18267;52.234;7.444;2023-04-26T09:43:11;4.90;;;1.70;;
31660;SDS011;18267;52.234;7.444;2023-04-26T09:48:19;4.38;;;1.20;;
31660;SDS011;18267;52.234;7.444;2023-04-26T09:50:50;3.03;;;1.17;;
31660;SDS011;18267;52.234;7.444;2023-04-26T09:53:35;1.55;;;0.95;;
31660;SDS011;18267;52.234;7.444;2023-04-26T09:58:35;4.88;;;1.15;;
31660;SDS011;18267;52.234;7.444;2023-04-26T10:01:02;9.20;;;1.70;;
31660;SDS011;18267;52.234;7.444;2023-04-26T10:03:32;3.08;;;1.58;;
31660;SDS011;18267;52.234;7.444;2023-04-26T10:06:00;7.50;;;1.83;;
31660;SDS011;18267;52.234;7.444;2023-04-26T10:08:26;5.40;;;1.52;;
31660;SDS011;18267;52.234;7.444;2023-04-26T10:10:51;8.32;;;1.70;;
31660;SDS011;18267;52.234;7.444;2023-04-26T10:13:18;2.58;;;1.38;;
31660;SDS011;18267;52.234;7.444;2023-04-26T10:15:43;4.57;;;2.13;;
31660;SDS011;18267;52.234;7.444;2023-04-26T10:18:10;6.30;;;1.52;;
31660;SDS011;18267;52.234;7.444;2023-04-26T10:20:39;4.78;;;1.60;;
31660;SDS011;18267;52.234;7.444;2023-04-26T10:23:15;2.67;;;1.25;;
31660;SDS011;18267;52.234;7.444;2023-04-26T10:25:46;4.53;;;1.75;;
31660;SDS011;18267;52.234;7.444;2023-04-26T10:28:13;4.88;;;2.05;;
31660;SDS011;18267;52.234;7.444;2023-04-26T10:30:52;2.80;;;1.63;;
31660;SDS011;18267;52.234;7.444;2023-04-26T10:33:23;11.35;;;2.28;;
31660;SDS011;18267;52.234;7.444;2023-04-26T10:36:06;5.32;;;1.38;;
31660;SDS011;18267;52.234;7.444;2023-04-26T10:38:38;2.55;;;1.55;;
31660;SDS011;18267;52.234;7.444;2023-04-26T10:41:30;3.25;;;1.88;;
31660;SDS011;18267;52.234;7.444;2023-04-26T10:43:58;7.47;;;1.75;;
31660;SDS011;18267;52.234;7.444;2023-04-26T10:46:48;2.28;;;1.33;;
31660;SDS011;18267;52.234;7.444;2023-04-26T10:49:16;8.85;;;1.35;;
31660;SDS011;18267;52.234;7.444;2023-04-26T10:52:07;4.13;;;1.50;;
31660;SDS011;18267;52.234;7.444;2023-04-26T10:54:49;5.20;;;1.73;;
31660;SDS011;18267;52.234;7.444;2023-04-26T10:57:23;5.60;;;1.90;;
31660;SDS011;18267;52.234;7.444;2023-04-26T11:00:16;6.07;;;1.85;;
31660;SDS011;18267;52.234;7.444;2023-04-26T11:02:44;2.67;;;1.73;;
31660;SDS011;18267;52.234;7.444;2023-04-26T11:05:10;7.63;;;1.40;;
31660;SDS011;18267;52.234;7.444;2023-04-26T11:08:02;8.65;;;1.65;;
31660;SDS011;18267;52.234;7.444;2023-04-26T11:10:33;2.65;;;1.20;;
31660;SDS011;18267;52.234;7.444;2023-04-26T11:13:03;4.28;;;1.40;;
31660;SDS011;18267;52.234;7.444;2023-04-26T11:15:29;5.43;;;1.20;;
31660;SDS011;18267;52.234;7.444;2023-04-26T11:17:56;8.77;;;1.30;;
31660;SDS011;18267;52.234;7.444;2023-04-26T11:20:21;5.30;;;1.40;;
31660;SDS011;18267;52.234;7.444;2023-04-26T11:22:52;5.07;;;1.10;;
31660;SDS011;18267;52.234;7.444;2023-04-26T11:25:18;5.30;;;1.27;;
31660;SDS011;18267;52.234;7.444;2023-04-26T11:27:44;3.17;;;1.20;;
31660;SDS011;18267;52.234;7.444;2023-04-26T11:30:10;2.47;;;1.10;;
31660;SDS011;18267;52.234;7.444;2023-04-26T11:32:36;8.45;;;1.40;;
31660;SDS011;18267;52.234;7.444;2023-04-26T11:35:02;3.35;;;1.75;;
31660;SDS011;18267;52.234;7.444;2023-04-26T11:37:28;1.30;;;1.20;;
31660;SDS011;18267;52.234;7.444;2023-04-26T11:39:55;6.70;;;1.60;;
31660;SDS011;18267;52.234;7.444;2023-04-26T11:42:23;1.33;;;0.90;;
31660;SDS011;18267;52.234;7.444;2023-04-26T11:44:49;5.68;;;1.17;;
31660;SDS011;18267;52.234;7.444;2023-04-26T11:47:16;2.65;;;1.25;;
31660;SDS011;18267;52.234;7.444;2023-04-26T11:49:43;3.60;;;1.48;;
31660;SDS011;18267;52.234;7.444;2023-04-26T11:52:10;4.85;;;1.20;;
31660;SDS011;18267;52.234;7.444;2023-04-26T11:54:35;5.85;;;1.30;;
31660;SDS011;18267;52.234;7.444;2023-04-26T11:57:14;4.65;;;0.82;;
31660;SDS011;18267;52.234;7.444;2023-04-26T11:59:41;1.88;;;0.70;;
31660;SDS011;18267;52.234;7.444;2023-04-26T12:02:07;4.88;;;1.08;;
31660;SDS011;18267;52.234;7.444;2023-04-26T12:04:35;4.60;;;1.13;;
31660;SDS011;18267;52.234;7.444;2023-04-26T12:07:03;1.73;;;0.80;;
31660;SDS011;18267;52.234;7.444;2023-04-26T12:09:29;2.92;;;1.20;;
31660;SDS011;18267;52.234;7.444;2023-04-26T12:12:01;7.47;;;1.13;;
31660;SDS011;18267;52.234;7.444;2023-04-26T12:14:33;1.63;;;0.70;;
31660;SDS011;18267;52.234;7.444;2023-04-26T12:17:01;2.05;;;1.00;;
31660;SDS011;18267;52.234;7.444;2023-04-26T12:19:36;2.25;;;0.90;;
31660;SDS011;18267;52.234;7.444;2023-04-26T12:22:03;4.57;;;1.25;;
31660;SDS011;18267;52.234;7.444;2023-04-26T12:24:29;2.38;;;0.70;;
31660;SDS011;18267;52.234;7.444;2023-04-26T12:27:00;5.80;;;1.25;;
31660;SDS011;18267;52.234;7.444;2023-04-26T12:29:28;2.92;;;1.02;;
31660;SDS011;18267;52.234;7.444;2023-04-26T12:31:54;3.28;;;0.90;;
31660;SDS011;18267;52.234;7.444;2023-04-26T12:34:20;1.33;;;0.70;;
31660;SDS011;18267;52.234;7.444;2023-04-26T12:36:47;9.75;;;1.00;;
31660;SDS011;18267;52.234;7.444;2023-04-26T12:39:12;2.63;;;0.80;;
31660;SDS011;18267;52.234;7.444;2023-04-26T12:41:40;3.47;;;0.77;;
31660;SDS011;18267;52.234;7.444;2023-04-26T12:44:09;1.40;;;0.82;;
31660;SDS011;18267;52.234;7.444;2023-04-26T12:46:35;1.63;;;0.82;;
31660;SDS011;18267;52.234;7.444;2023-04-26T12:49:01;1.80;;;0.63;;
31660;SDS011;18267;52.234;7.444;2023-04-26T12:51:27;2.03;;;0.65;;
31660;SDS011;18267;52.234;7.444;2023-04-26T12:53:53;10.27;;;1.20;;
31660;SDS011;18267;52.234;7.444;2023-04-26T12:56:18;4.30;;;0.70;;
31660;SDS011;18267;52.234;7.444;2023-04-26T12:58:44;2.30;;;1.20;;
31660;SDS011;18267;52.234;7.444;2023-04-26T13:01:11;2.97;;;1.00;;
31660;SDS011;18267;52.234;7.444;2023-04-26T13:03:38;3.33;;;1.20;;
31660;SDS011;18267;52.234;7.444;2023-04-26T13:06:05;3.35;;;0.90;;
31660;SDS011;18267;52.234;7.444;2023-04-26T13:08:31;2.75;;;0.90;;
31660;SDS011;18267;52.234;7.444;2023-04-26T13:10:56;4.45;;;1.05;;
31660;SDS011;18267;52.234;7.444;2023-04-26T13:13:23;4.03;;;1.42;;
31660;SDS011;18267;52.234;7.444;2023-04-26T13:15:49;3.78;;;1.30;;
31660;SDS011;18267;52.234;7.444;2023-04-26T13:18:15;3.13;;;1.00;;
31660;SDS011;18267;52.234;7.444;2023-04-26T13:20:42;7.20;;;1.20;;
31660;SDS011;18267;52.234;7.444;2023-04-26T13:23:07;4.30;;;0.95;;
31660;SDS011;18267;52.234;7.444;2023-04-26T13:25:34;1.10;;;1.00;;
31660;SDS011;18267;52.234;7.444;2023-04-26T13:28:00;4.35;;;1.50;;
31660;SDS011;18267;52.234;7.444;2023-04-26T13:30:26;4.82;;;1.70;;
31660;SDS011;18267;52.234;7.444;2023-04-26T13:32:52;3.65;;;1.30;;
31660;SDS011;18267;52.234;7.444;2023-04-26T13:35:18;1.30;;;1.20;;
31660;SDS011;18267;52.234;7.444;2023-04-26T13:37:43;1.17;;;1.00;;
31660;SDS011;18267;52.234;7.444;2023-04-26T13:40:09;2.75;;;0.90;;
31660;SDS011;18267;52.234;7.444;2023-04-26T13:42:35;3.08;;;1.00;;
31660;SDS011;18267;52.234;7.444;2023-04-26T13:45:01;4.53;;;1.13;;
31660;SDS011;18267;52.234;7.444;2023-04-26T13:47:30;5.47;;;1.50;;
31660;SDS011;18267;52.234;7.444;2023-04-26T13:49:55;6.00;;;1.70;;
31660;SDS011;18267;52.234;7.444;2023-04-26T13:52:21;1.88;;;1.10;;
31660;SDS011;18267;52.234;7.444;2023-04-26T13:54:46;1.73;;;1.02;;
31660;SDS011;18267;52.234;7.444;2023-04-26T13:57:12;4.75;;;1.40;;
31660;SDS011;18267;52.234;7.444;2023-04-26T13:59:38;7.03;;;1.20;;
31660;SDS011;18267;52.234;7.444;2023-04-26T14:02:04;1.42;;;1.00;;
31660;SDS011;18267;52.234;7.444;2023-04-26T14:04:30;3.88;;;1.40;;
31660;SDS011;18267;52.234;7.444;2023-04-26T14:06:56;1.42;;;0.85;;
31660;SDS011;18267;52.234;7.444;2023-04-26T14:09:22;5.18;;;1.15;;
31660;SDS011;18267;52.234;7.444;2023-04-26T14:11:48;2.45;;;1.23;;
31660;SDS011;18267;52.234;7.444;2023-04-26T14:14:13;3.95;;;1.33;;
31660;SDS011;18267;52.234;7.444;2023-04-26T14:16:39;3.45;;;1.08;;
31660;SDS011;18267;52.234;7.444;2023-04-26T14:19:05;3.90;;;1.38;;
31660;SDS011;18267;52.234;7.444;2023-04-26T14:21:30;2.22;;;0.90;;
31660;SDS011;18267;52.234;7.444;2023-04-26T14:23:56;1.75;;;1.20;;
31660;SDS011;18267;52.234;7.444;2023-04-26T14:26:23;1.90;;;1.45;;
31660;SDS011;18267;52.234;7.444;2023-04-26T14:28:50;4.05;;;1.30;;
31660;SDS011;18267;52.234;7.444;2023-04-26T14:31:16;2.30;;;1.30;;
31660;SDS011;18267;52.234;7.444;2023-04-26T14:33:43;1.17;;;0.90;;
31660;SDS011;18267;52.234;7.444;2023-04-26T14:36:10;3.67;;;1.02;;
31660;SDS011;18267;52.234;7.444;2023-04-26T14:38:36;1.88;;;1.17;;
31660;SDS011;18267;52.234;7.444;2023-04-26T14:41:05;2.15;;;1.10;;
31660;SDS011;18267;52.234;7.444;2023-04-26T14:43:30;3.00;;;1.20;;
31660;SDS011;18267;52.234;7.444;2023-04-26T14:45:57;5.38;;;1.27;;
31660;SDS011;18267;52.234;7.444;2023-04-26T14:48:23;3.47;;;1.33;;